Time;durP1;ratioP1;P1;durP2;ratioP2;P2;SDS_P1;SDS_P2;PMS_P1;PMS_P2;Temp;Humidity;BMP_temperature;BMP_pressure;BME280_temperature;BME280_humidity;BME280_pressure;Samples;Min_cycle;Max_cycle;Signal;HPM_P1;HPM_P2
2021/11/24 00:00:00;;;;;;;23.30;20.52;;;4.20;99.90;;;;;;5059022;28;20082;-88
2021/11/24 00:02:27;;;;;;;23.77;18.25;;;4.10;99.90;;;;;;5058709;28;20056;-88
2021/11/24 00:04:54;;;;;;;16.23;13.18;;;4.10;99.90;;;;;;5058929;28;20048;-88
2021/11/24 00:07:21;;;;;;;13.95;11.25;;;4.10;99.90;;;;;;5076125;28;20048;-89
2021/11/24 00:09:48;;;;;;;14.38;10.63;;;4.10;99.90;;;;;;5076362;28;20127;-88
2021/11/24 00:12:14;;;;;;;14.30;10.95;;;4.20;99.90;;;;;;5058476;28;20051;-88
2021/11/24 00:14:41;;;;;;;15.60;11.18;;;4.20;99.90;;;;;;5058448;28;20052;-88
2021/11/24 00:17:08;;;;;;;15.45;10.93;;;4.20;99.90;;;;;;5058418;28;20059;-88
2021/11/24 00:19:35;;;;;;;12.68;10.40;;;4.10;99.90;;;;;;5058680;28;20052;-88
2021/11/24 00:22:02;;;;;;;14.13;10.15;;;4.10;99.90;;;;;;5058727;28;20547;-88
2021/11/24 00:24:30;;;;;;;13.95;10.10;;;4.20;99.90;;;;;;5076652;28;20048;-88
2021/11/24 00:26:56;;;;;;;11.25;8.80;;;4.20;99.90;;;;;;5059101;28;20051;-88
2021/11/24 00:29:23;;;;;;;13.02;9.25;;;4.20;99.90;;;;;;5071410;28;20125;-89
2021/11/24 00:31:50;;;;;;;10.65;8.48;;;4.20;99.90;;;;;;5078394;28;20052;-88
2021/11/24 00:34:17;;;;;;;12.77;8.43;;;4.20;99.90;;;;;;5058125;28;20455;-88
2021/11/24 00:36:43;;;;;;;12.52;8.65;;;4.20;99.90;;;;;;5075497;28;20047;-88
2021/11/24 00:39:10;;;;;;;11.52;9.50;;;4.20;99.90;;;;;;5058141;28;20059;-88
2021/11/24 00:41:37;;;;;;;10.40;8.60;;;4.20;99.90;;;;;;5057947;28;20044;-88
2021/11/24 00:44:04;;;;;;;13.27;9.25;;;4.20;99.90;;;;;;5057892;28;20048;-88
2021/11/24 00:46:31;;;;;;;10.25;8.93;;;4.20;99.90;;;;;;5057787;28;20044;-88
2021/11/24 00:48:57;;;;;;;14.70;9.55;;;4.20;99.90;;;;;;5057690;28;20052;-89
2021/11/24 00:51:24;;;;;;;12.20;8.75;;;4.10;99.90;;;;;;5057874;28;20047;-88
2021/11/24 00:53:51;;;;;;;9.77;8.70;;;4.20;99.90;;;;;;5076349;28;20048;-88
2021/11/24 00:56:18;;;;;;;9.60;8.55;;;4.10;99.90;;;;;;5057354;28;20112;-88
2021/11/24 00:58:45;;;;;;;12.63;9.32;;;4.10;99.90;;;;;;5057475;28;20471;-88
2021/11/24 01:01:12;;;;;;;12.95;9.18;;;4.10;99.90;;;;;;5057568;28;20044;-88
2021/11/24 01:03:39;;;;;;;12.57;9.75;;;4.10;99.90;;;;;;5057536;28;20135;-88
2021/11/24 01:06:06;;;;;;;14.45;10.13;;;4.10;99.90;;;;;;5057424;28;20086;-88
2021/11/24 01:08:33;;;;;;;13.27;9.80;;;4.00;99.90;;;;;;5074453;28;20511;-88
2021/11/24 01:11:00;;;;;;;13.10;8.52;;;4.00;99.90;;;;;;5057214;28;20094;-88
2021/11/24 01:13:26;;;;;;;11.82;8.63;;;4.00;99.90;;;;;;5057353;28;20051;-88
2021/11/24 01:15:54;;;;;;;10.77;7.60;;;4.00;99.90;;;;;;5057282;28;20484;-88
2021/11/24 01:18:21;;;;;;;10.13;7.97;;;4.10;99.90;;;;;;5057045;28;20064;-89
2021/11/24 01:20:50;;;;;;;11.25;7.85;;;4.10;99.90;;;;;;5056955;28;20047;-89
2021/11/24 01:23:17;;;;;;;11.52;8.50;;;4.00;99.90;;;;;;5056655;28;20056;-88
2021/11/24 01:25:44;;;;;;;11.43;7.97;;;4.10;99.90;;;;;;5057001;28;20051;-88
2021/11/24 01:28:12;;;;;;;10.60;7.60;;;4.10;99.90;;;;;;5074497;28;20048;-88
2021/11/24 01:30:38;;;;;;;11.90;8.55;;;4.10;99.90;;;;;;5074834;28;20049;-88
2021/11/24 01:33:05;;;;;;;14.32;8.98;;;4.10;99.90;;;;;;5056726;28;20048;-88
2021/11/24 01:35:32;;;;;;;9.02;7.53;;;4.10;99.90;;;;;;5056872;28;20078;-88
2021/11/24 01:37:59;;;;;;;9.45;7.88;;;4.00;99.90;;;;;;5057044;28;20052;-88
2021/11/24 01:40:26;;;;;;;10.38;7.90;;;3.90;99.90;;;;;;5057130;28;20067;-88
2021/11/24 01:42:53;;;;;;;10.40;7.72;;;4.00;99.90;;;;;;5057561;28;20484;-88
2021/11/24 01:45:22;;;;;;;11.55;8.00;;;4.10;99.90;;;;;;5072080;28;20456;-88
2021/11/24 01:47:50;;;;;;;10.23;8.00;;;4.10;99.90;;;;;;5075250;28;20186;-88
2021/11/24 01:50:19;;;;;;;8.52;7.00;;;4.10;99.90;;;;;;5056297;28;20126;-88
2021/11/24 01:52:47;;;;;;;7.85;7.07;;;4.10;99.90;;;;;;5073945;28;20555;-88
2021/11/24 01:55:15;;;;;;;10.13;7.82;;;4.10;99.90;;;;;;5074067;28;20040;-88
2021/11/24 01:57:51;;;;;;;10.45;7.72;;;4.00;99.90;;;;;;5074205;28;20044;-88
2021/11/24 02:00:24;;;;;;;9.48;7.72;;;4.10;99.90;;;;;;5056216;28;20411;-88
2021/11/24 02:02:51;;;;;;;8.85;7.15;;;4.10;99.90;;;;;;5056061;28;20492;-89
2021/11/24 02:05:19;;;;;;;9.73;7.20;;;4.20;99.90;;;;;;5074098;28;20044;-89
2021/11/24 02:07:47;;;;;;;9.43;6.80;;;4.10;99.90;;;;;;5056484;28;20052;-88
2021/11/24 02:10:14;;;;;;;8.95;6.88;;;4.10;99.90;;;;;;5073858;28;20044;-88
2021/11/24 02:12:42;;;;;;;9.15;6.82;;;4.20;99.90;;;;;;5074068;28;20040;-88
2021/11/24 02:15:09;;;;;;;13.48;8.55;;;4.10;99.90;;;;;;5073572;28;20139;-89
2021/11/24 02:17:36;;;;;;;8.95;7.72;;;4.00;99.90;;;;;;5055994;28;20131;-88
2021/11/24 02:20:05;;;;;;;8.43;7.32;;;4.10;99.90;;;;;;5056451;28;20059;-88
2021/11/24 02:22:32;;;;;;;7.65;6.88;;;4.10;99.90;;;;;;5056299;28;20052;-88
2021/11/24 02:24:59;;;;;;;9.68;7.32;;;4.10;99.90;;;;;;5056176;28;20048;-88
2021/11/24 02:27:26;;;;;;;7.95;7.15;;;4.20;99.90;;;;;;5056135;28;20044;-88
2021/11/24 02:29:52;;;;;;;10.50;8.13;;;4.20;99.90;;;;;;5056112;28;20050;-88
2021/11/24 02:32:19;;;;;;;9.88;8.02;;;4.00;99.90;;;;;;5056158;28;20412;-88
2021/11/24 02:34:46;;;;;;;8.65;7.30;;;4.00;99.90;;;;;;5073697;28;20052;-88
2021/11/24 02:37:13;;;;;;;9.23;7.82;;;4.10;99.90;;;;;;5073679;28;20040;-89
2021/11/24 02:39:39;;;;;;;9.70;7.63;;;4.00;99.90;;;;;;5055938;28;20139;-88
2021/11/24 02:42:06;;;;;;;9.55;8.23;;;4.00;99.90;;;;;;5055811;28;20045;-88
2021/11/24 02:44:39;;;;;;;9.18;7.18;;;4.00;99.90;;;;;;5073408;28;20048;-88
2021/11/24 02:47:10;;;;;;;9.00;7.63;;;3.90;99.90;;;;;;5056034;28;20080;-88
2021/11/24 02:49:46;;;;;;;11.13;8.27;;;4.00;99.90;;;;;;5073552;28;20079;-88
2021/11/24 02:52:13;;;;;;;9.68;7.85;;;4.00;99.90;;;;;;5054581;28;20044;-88
2021/11/24 02:54:40;;;;;;;9.63;6.75;;;4.00;99.90;;;;;;5058996;28;20051;-88
2021/11/24 02:57:08;;;;;;;9.57;7.15;;;4.00;99.90;;;;;;5059000;28;20052;-88
2021/11/24 02:59:39;;;;;;;11.45;8.18;;;4.00;99.90;;;;;;5077131;28;20104;-88
2021/11/24 03:02:07;;;;;;;10.00;7.85;;;4.00;99.90;;;;;;5100048;28;20108;-89
2021/11/24 03:04:34;;;;;;;8.07;6.95;;;4.00;99.90;;;;;;5070318;28;20127;-88
2021/11/24 03:07:02;;;;;;;10.07;7.78;;;4.10;99.90;;;;;;5059799;28;20048;-88
2021/11/24 03:09:30;;;;;;;10.40;7.75;;;3.90;99.90;;;;;;5059616;28;20048;-87
2021/11/24 03:11:57;;;;;;;9.85;8.25;;;3.90;99.90;;;;;;5077323;28;20044;-88
2021/11/24 03:14:23;;;;;;;10.88;8.40;;;3.80;99.90;;;;;;5059789;28;20476;-88
2021/11/24 03:16:55;;;;;;;10.57;7.97;;;3.90;99.90;;;;;;5077072;28;20067;-88
2021/11/24 03:19:22;;;;;;;8.98;7.85;;;4.00;99.90;;;;;;5059456;28;20109;-88
2021/11/24 03:21:48;;;;;;;8.15;7.15;;;4.10;99.90;;;;;;5076988;28;20048;-88
2021/11/24 03:24:15;;;;;;;10.32;7.32;;;4.10;99.90;;;;;;5076907;28;20095;-88
2021/11/24 03:26:42;;;;;;;10.07;7.65;;;4.10;99.90;;;;;;5076134;28;20088;-88
2021/11/24 03:29:09;;;;;;;10.70;7.47;;;4.10;99.90;;;;;;5077356;28;20084;-88
2021/11/24 03:31:36;;;;;;;11.38;7.82;;;4.00;99.90;;;;;;5077221;28;20104;-88
2021/11/24 03:34:03;;;;;;;10.90;8.02;;;4.10;99.90;;;;;;5059330;28;20048;-88
2021/11/24 03:36:29;;;;;;;9.60;7.78;;;4.10;99.90;;;;;;5059324;28;20095;-88
2021/11/24 03:38:56;;;;;;;10.27;8.07;;;4.10;99.90;;;;;;5076995;28;20127;-88
2021/11/24 03:41:23;;;;;;;8.73;7.75;;;4.00;99.90;;;;;;5059317;28;20048;-88
2021/11/24 03:43:50;;;;;;;8.82;7.47;;;4.00;99.90;;;;;;5059293;28;20044;-88
2021/11/24 03:46:16;;;;;;;8.43;7.07;;;4.00;99.90;;;;;;5076997;28;20051;-88
2021/11/24 03:48:44;;;;;;;10.85;7.93;;;4.00;99.90;;;;;;5076643;28;20054;-88
2021/11/24 03:51:11;;;;;;;8.30;6.60;;;4.00;99.90;;;;;;5059290;28;20056;-88
2021/11/24 03:53:40;;;;;;;7.88;6.38;;;3.90;99.90;;;;;;5077078;28;20084;-88
2021/11/24 03:56:09;;;;;;;8.98;7.00;;;4.00;99.90;;;;;;5059267;28;20051;-88
2021/11/24 03:58:36;;;;;;;8.25;6.47;;;4.10;99.90;;;;;;5076908;28;20048;-88
2021/11/24 04:01:05;;;;;;;9.48;6.60;;;4.00;99.90;;;;;;5076783;28;20044;-88
2021/11/24 04:03:32;;;;;;;7.53;6.55;;;4.00;99.90;;;;;;5058850;28;20056;-87
2021/11/24 04:05:59;;;;;;;9.13;7.25;;;4.00;99.90;;;;;;5075579;28;20055;-88
2021/11/24 04:08:26;;;;;;;12.45;8.02;;;4.00;99.90;;;;;;5058893;28;20583;-88
2021/11/24 04:10:53;;;;;;;9.85;7.53;;;4.00;99.90;;;;;;5058874;28;20054;-88
2021/11/24 04:13:20;;;;;;;9.25;7.15;;;3.80;99.90;;;;;;5059432;28;20079;-88
2021/11/24 04:15:47;;;;;;;7.45;6.65;;;3.90;99.90;;;;;;5080576;28;20049;-89
2021/11/24 04:18:13;;;;;;;14.07;7.43;;;3.90;99.90;;;;;;5079173;28;20052;-88
2021/11/24 04:20:40;;;;;;;10.73;8.23;;;4.00;99.90;;;;;;5064091;28;20481;-88
2021/11/24 04:23:07;;;;;;;9.15;7.43;;;3.90;99.90;;;;;;5075862;28;20051;-88
2021/11/24 04:25:34;;;;;;;8.70;7.60;;;4.00;99.90;;;;;;5058391;28;20102;-88
2021/11/24 04:28:01;;;;;;;7.30;6.57;;;4.00;99.90;;;;;;5058293;28;20050;-88
2021/11/24 04:30:27;;;;;;;9.10;7.10;;;4.10;99.90;;;;;;5058289;28;20059;-88
2021/11/24 04:32:54;;;;;;;10.90;8.05;;;4.10;99.90;;;;;;5075010;28;20088;-88
2021/11/24 04:35:21;;;;;;;9.02;6.97;;;4.00;99.90;;;;;;5058058;28;20127;-88
2021/11/24 04:37:48;;;;;;;10.18;7.95;;;4.00;99.90;;;;;;5076254;28;20044;-88
2021/11/24 04:40:15;;;;;;;9.27;8.00;;;4.00;99.90;;;;;;5058217;28;20055;-88
2021/11/24 04:42:43;;;;;;;12.38;7.90;;;4.00;99.90;;;;;;5076199;28;20056;-88
2021/11/24 04:45:10;;;;;;;8.10;7.15;;;4.00;99.90;;;;;;5057912;28;20050;-88
2021/11/24 04:47:37;;;;;;;8.43;7.47;;;4.00;99.90;;;;;;5075778;28;20040;-88
2021/11/24 04:50:05;;;;;;;8.13;7.22;;;4.00;99.90;;;;;;5058071;28;20538;-88
2021/11/24 04:52:32;;;;;;;8.70;7.43;;;4.00;99.90;;;;;;5058089;28;20522;-88
2021/11/24 04:54:59;;;;;;;10.15;7.40;;;4.00;99.90;;;;;;5075246;28;20120;-88
2021/11/24 04:57:26;;;;;;;10.32;7.32;;;4.00;99.90;;;;;;5057797;28;20044;-88
2021/11/24 04:59:52;;;;;;;13.60;9.52;;;3.90;99.90;;;;;;5057772;28;20063;-88
2021/11/24 05:02:19;;;;;;;13.23;8.18;;;3.90;99.90;;;;;;5075127;28;20045;-88
2021/11/24 05:04:46;;;;;;;11.63;8.65;;;3.90;99.90;;;;;;5074498;28;20050;-88
2021/11/24 05:07:13;;;;;;;12.13;8.30;;;3.90;99.90;;;;;;5057500;28;20052;-88
2021/11/24 05:09:59;;;;;;;11.65;7.53;;;3.80;99.90;;;;;;5060359;28;20106;-88
2021/11/24 05:12:27;;;;;;;9.07;7.38;;;3.80;99.90;;;;;;5057334;28;20048;-88
2021/11/24 05:14:54;;;;;;;12.52;9.93;;;3.90;99.90;;;;;;5057319;28;20045;-88
2021/11/24 05:17:23;;;;;;;10.70;9.23;;;3.70;99.90;;;;;;5074529;28;20048;-88
2021/11/24 05:19:51;;;;;;;9.57;7.82;;;3.70;99.90;;;;;;5073857;28;20140;-88
2021/11/24 05:22:19;;;;;;;11.88;8.27;;;3.70;99.90;;;;;;5056592;28;20049;-88
2021/11/24 05:24:49;;;;;;;10.00;8.07;;;3.80;99.90;;;;;;5057653;28;20477;-88
2021/11/24 05:27:16;;;;;;;10.55;7.57;;;3.70;99.90;;;;;;5057406;28;20409;-88
2021/11/24 05:29:43;;;;;;;9.40;7.68;;;3.80;99.90;;;;;;5074188;28;20052;-88
2021/11/24 05:32:10;;;;;;;66.68;40.58;;;3.80;99.90;;;;;;5085883;28;20036;-88
2021/11/24 05:34:37;;;;;;;34.72;26.35;;;3.70;99.90;;;;;;5063791;28;20054;-88
2021/11/24 05:37:06;;;;;;;16.55;12.93;;;3.70;99.90;;;;;;5057343;28;20061;-88
2021/11/24 05:39:35;;;;;;;21.13;15.82;;;3.70;99.90;;;;;;5057039;28;20102;-88
2021/11/24 05:42:03;;;;;;;12.35;9.77;;;3.70;99.90;;;;;;5056943;28;20044;-88
2021/11/24 05:44:34;;;;;;;11.10;7.68;;;3.80;99.90;;;;;;5056803;28;20052;-88
2021/11/24 05:47:07;;;;;;;14.85;7.50;;;3.80;99.90;;;;;;5074228;28;20056;-88
2021/11/24 05:49:37;;;;;;;10.98;8.40;;;3.90;99.90;;;;;;5074225;28;20054;-88
2021/11/24 05:52:04;;;;;;;9.88;8.85;;;3.90;99.90;;;;;;5056592;28;20110;-88
2021/11/24 05:54:32;;;;;;;11.43;8.63;;;3.90;99.90;;;;;;5056920;28;20416;-88
2021/11/24 05:56:59;;;;;;;8.43;7.43;;;3.90;99.90;;;;;;5056456;28;20530;-88
2021/11/24 05:59:26;;;;;;;9.10;7.28;;;4.00;99.90;;;;;;5056004;28;20480;-88
2021/11/24 06:01:52;;;;;;;10.82;7.00;;;4.00;99.90;;;;;;5072736;28;20556;-88
2021/11/24 06:04:19;;;;;;;6.60;6.00;;;4.00;99.90;;;;;;5057302;28;20547;-88
2021/11/24 06:06:46;;;;;;;11.73;7.10;;;4.00;99.90;;;;;;5056287;28;20051;-88
2021/11/24 06:09:13;;;;;;;8.43;6.78;;;4.00;99.90;;;;;;5073793;28;20060;-88
2021/11/24 06:11:40;;;;;;;8.07;6.70;;;4.00;99.90;;;;;;5056607;28;20050;-88
2021/11/24 06:14:06;;;;;;;10.38;6.70;;;4.00;99.90;;;;;;5074010;28;20052;-88
2021/11/24 06:16:33;;;;;;;9.80;6.03;;;4.00;99.90;;;;;;5056193;28;20049;-88
2021/11/24 06:19:00;;;;;;;9.02;6.40;;;4.00;99.90;;;;;;5056275;28;20492;-88
2021/11/24 06:21:27;;;;;;;9.73;6.07;;;4.00;99.90;;;;;;5056167;28;20154;-88
2021/11/24 06:23:54;;;;;;;6.78;5.82;;;3.90;99.90;;;;;;5072318;28;20044;-88
2021/11/24 06:26:22;;;;;;;7.38;6.57;;;4.00;99.90;;;;;;5056253;28;20132;-88
2021/11/24 06:28:50;;;;;;;10.18;6.20;;;4.00;99.90;;;;;;5052474;28;20094;-88
2021/11/24 06:31:17;;;;;;;7.07;6.38;;;3.90;99.90;;;;;;5069450;28;20548;-88
2021/11/24 06:33:44;;;;;;;7.28;6.43;;;3.90;99.90;;;;;;5055791;28;20051;-87
2021/11/24 06:36:11;;;;;;;7.07;6.22;;;3.90;99.90;;;;;;5056100;28;20052;-88
2021/11/24 06:38:38;;;;;;;7.00;6.30;;;4.00;99.90;;;;;;5073414;28;20045;-88
2021/11/24 06:41:04;;;;;;;6.40;5.78;;;3.90;99.90;;;;;;5071599;28;20420;-88
2021/11/24 06:43:32;;;;;;;9.48;6.20;;;3.90;99.90;;;;;;5073424;28;20051;-88
2021/11/24 06:45:59;;;;;;;10.27;6.18;;;3.90;99.90;;;;;;5056710;28;20059;-88
2021/11/24 06:48:26;;;;;;;14.43;8.68;;;4.00;99.90;;;;;;5090276;28;20059;-88
2021/11/24 06:50:52;;;;;;;9.85;7.72;;;3.90;99.90;;;;;;5057313;28;20084;-88
2021/11/24 06:53:19;;;;;;;8.20;6.88;;;3.80;99.90;;;;;;5055804;28;20507;-88
2021/11/24 06:55:46;;;;;;;6.43;5.70;;;3.90;99.90;;;;;;5055425;28;20400;-87
2021/11/24 06:58:14;;;;;;;7.95;6.30;;;4.00;99.90;;;;;;5055610;28;20052;-88
2021/11/24 07:00:42;;;;;;;8.30;7.15;;;4.00;99.90;;;;;;5073484;28;20066;-88
2021/11/24 07:03:09;;;;;;;8.15;6.35;;;4.00;99.90;;;;;;5055918;28;20404;-87
2021/11/24 07:05:36;;;;;;;7.25;6.32;;;4.10;99.90;;;;;;5073163;28;20082;-88
2021/11/24 07:08:04;;;;;;;8.70;6.40;;;4.20;99.90;;;;;;5055568;28;20473;-87
2021/11/24 07:10:32;;;;;;;5.75;5.00;;;4.20;99.90;;;;;;5055647;28;20051;-87
2021/11/24 07:13:00;;;;;;;7.57;6.32;;;4.20;99.90;;;;;;5055643;28;20051;-88
2021/11/24 07:15:27;;;;;;;8.25;6.25;;;4.20;99.90;;;;;;5055532;28;20479;-87
2021/11/24 07:17:54;;;;;;;8.73;7.03;;;4.10;99.90;;;;;;5055230;28;20048;-88
2021/11/24 07:20:21;;;;;;;9.20;6.30;;;4.00;99.90;;;;;;5055595;28;20062;-87
2021/11/24 07:22:47;;;;;;;8.93;6.07;;;4.10;99.90;;;;;;5051772;28;20051;-88
2021/11/24 07:25:14;;;;;;;10.05;6.75;;;4.20;99.90;;;;;;5068360;28;20063;-88
2021/11/24 07:27:41;;;;;;;9.88;5.95;;;4.20;99.90;;;;;;5071913;28;20141;-88
2021/11/24 07:30:08;;;;;;;9.55;6.28;;;4.20;99.90;;;;;;5055131;28;20052;-88
2021/11/24 07:32:36;;;;;;;12.18;7.95;;;4.20;99.90;;;;;;5071931;28;20052;-87
2021/11/24 07:35:04;;;;;;;11.57;6.78;;;4.10;99.90;;;;;;5055130;28;20052;-87
2021/11/24 07:37:31;;;;;;;9.85;6.65;;;4.20;99.90;;;;;;5055161;28;20051;-87
2021/11/24 07:39:57;;;;;;;9.88;6.90;;;4.30;99.90;;;;;;5055514;28;20426;-87
2021/11/24 07:42:24;;;;;;;11.18;6.50;;;4.30;99.90;;;;;;5055011;28;20048;-87
2021/11/24 07:44:51;;;;;;;10.70;7.43;;;4.40;99.90;;;;;;5072683;28;20044;-87
2021/11/24 07:47:19;;;;;;;11.10;6.82;;;4.40;99.90;;;;;;5075878;28;20049;-88
2021/11/24 07:49:45;;;;;;;9.65;7.85;;;4.50;99.90;;;;;;5058719;28;20048;-88
2021/11/24 07:52:12;;;;;;;9.98;6.80;;;4.60;99.90;;;;;;5058739;28;20055;-88
2021/11/24 07:54:39;;;;;;;17.77;12.95;;;4.70;99.90;;;;;;5058615;28;20044;-88
2021/11/24 07:57:06;;;;;;;15.15;12.20;;;4.80;99.90;;;;;;5058836;28;20076;-88
2021/11/24 07:59:33;;;;;;;6.72;5.72;;;4.80;99.90;;;;;;5076476;28;20044;-87
2021/11/24 08:02:00;;;;;;;6.00;5.20;;;4.90;99.90;;;;;;5077203;28;20056;-87
2021/11/24 08:04:28;;;;;;;5.30;4.40;;;4.90;99.90;;;;;;5075159;28;20048;-88
2021/11/24 08:06:59;;;;;;;7.82;4.65;;;5.00;99.90;;;;;;5058975;28;20143;-88
2021/11/24 08:09:26;;;;;;;4.50;4.10;;;5.10;99.90;;;;;;5058550;28;20052;-87
2021/11/24 08:11:54;;;;;;;5.28;4.05;;;5.20;99.90;;;;;;5076377;28;20054;-88
2021/11/24 08:14:21;;;;;;;4.57;3.90;;;5.20;99.90;;;;;;5075188;28;20571;-88
2021/11/24 08:16:48;;;;;;;14.63;11.68;;;5.30;99.90;;;;;;5058197;28;20053;-87
2021/11/24 08:19:15;;;;;;;15.38;13.60;;;5.30;99.90;;;;;;5058274;28;20052;-88
2021/11/24 08:21:42;;;;;;;10.82;7.43;;;5.50;99.90;;;;;;5058380;28;20084;-88
2021/11/24 08:24:09;;;;;;;9.98;8.93;;;5.60;99.90;;;;;;5075636;28;20500;-88
2021/11/24 08:26:36;;;;;;;7.25;5.15;;;5.60;99.90;;;;;;5075869;28;20135;-88
2021/11/24 08:29:03;;;;;;;9.20;5.15;;;5.60;99.90;;;;;;5058068;28;20052;-88
2021/11/24 08:31:30;;;;;;;6.00;4.60;;;5.70;99.90;;;;;;5058010;28;20449;-88
2021/11/24 08:33:57;;;;;;;4.38;3.97;;;5.70;99.90;;;;;;5058013;28;20063;-88
2021/11/24 08:36:24;;;;;;;3.63;3.33;;;5.80;99.90;;;;;;5058014;28;20504;-88
2021/11/24 08:38:56;;;;;;;4.50;3.35;;;5.80;99.90;;;;;;5074730;28;20095;-88
2021/11/24 08:41:41;;;;;;;4.88;3.33;;;5.90;99.90;;;;;;5060457;28;20477;-88
2021/11/24 08:44:07;;;;;;;3.30;3.03;;;5.90;99.90;;;;;;5057766;28;20044;-88
2021/11/24 08:46:34;;;;;;;3.03;2.83;;;5.90;99.90;;;;;;5074344;28;20465;-87
2021/11/24 08:49:02;;;;;;;3.22;2.92;;;5.90;99.90;;;;;;5075174;28;20048;-87
2021/11/24 08:51:29;;;;;;;3.58;3.28;;;6.00;99.90;;;;;;5058122;28;20118;-88
2021/11/24 08:53:56;;;;;;;3.80;3.00;;;6.00;99.90;;;;;;5057394;28;20047;-87
2021/11/24 08:56:26;;;;;;;3.15;2.50;;;6.10;99.90;;;;;;5075079;28;20083;-87
2021/11/24 08:58:53;;;;;;;3.05;2.85;;;6.20;99.90;;;;;;5057451;28;20052;-87
2021/11/24 09:01:20;;;;;;;2.88;2.67;;;6.30;99.90;;;;;;5057693;28;20044;-87
2021/11/24 09:03:47;;;;;;;6.38;5.80;;;6.40;99.90;;;;;;5058060;28;20132;-87
2021/11/24 09:06:14;;;;;;;3.67;3.38;;;6.30;99.90;;;;;;5057419;28;20536;-87
2021/11/24 09:08:41;;;;;;;3.20;2.90;;;6.50;99.90;;;;;;5057449;28;20484;-87
2021/11/24 09:11:07;;;;;;;3.33;3.00;;;6.50;99.90;;;;;;5074086;28;20052;-86
2021/11/24 09:13:34;;;;;;;3.20;2.88;;;6.50;99.90;;;;;;5057736;28;20059;-87
2021/11/24 09:16:01;;;;;;;2.47;2.38;;;6.60;99.90;;;;;;5074913;28;20485;-87
2021/11/24 09:18:28;;;;;;;3.15;2.83;;;6.60;99.90;;;;;;5077073;28;20147;-87
2021/11/24 09:20:55;;;;;;;2.83;2.65;;;6.70;99.90;;;;;;5073107;28;20476;-87
2021/11/24 09:23:23;;;;;;;2.70;2.50;;;6.80;99.90;;;;;;5058036;28;20054;-86
2021/11/24 09:26:02;;;;;;;2.40;2.20;;;6.70;99.90;;;;;;5057309;28;20057;-86
2021/11/24 09:28:32;;;;;;;2.75;2.55;;;6.80;99.90;;;;;;5074632;28;20044;-87
2021/11/24 09:31:00;;;;;;;2.28;2.10;;;6.80;99.90;;;;;;5057012;28;20084;-86
2021/11/24 09:33:27;;;;;;;2.33;2.22;;;6.90;99.90;;;;;;5073747;28;20049;-87
2021/11/24 09:35:54;;;;;;;4.05;2.70;;;7.00;99.90;;;;;;5056983;28;20052;-87
2021/11/24 09:38:21;;;;;;;3.58;2.63;;;7.20;99.90;;;;;;5074398;28;20072;-86
2021/11/24 09:40:49;;;;;;;2.55;2.35;;;7.20;99.90;;;;;;5056729;28;20139;-87
2021/11/24 09:43:17;;;;;;;2.72;2.22;;;7.20;99.90;;;;;;5073971;28;20044;-87
2021/11/24 09:45:46;;;;;;;2.45;1.90;;;7.20;99.90;;;;;;5040130;28;20108;-87
2021/11/24 09:48:15;;;;;;;2.20;2.10;;;7.30;99.90;;;;;;5056646;28;20496;-86
2021/11/24 09:50:43;;;;;;;2.30;1.92;;;7.10;99.90;;;;;;5074126;28;20139;-87
2021/11/24 09:53:11;;;;;;;2.58;1.88;;;7.00;99.90;;;;;;5055914;28;20484;-87
2021/11/24 09:55:40;;;;;;;2.42;2.22;;;6.90;99.90;;;;;;5074042;28;20488;-87
2021/11/24 09:58:10;;;;;;;2.78;2.58;;;6.80;99.90;;;;;;5073862;28;20467;-87
2021/11/24 10:00:38;;;;;;;8.00;4.03;;;6.70;99.90;;;;;;5073850;28;20091;-86
2021/11/24 10:03:05;;;;;;;7.43;5.68;;;6.70;99.90;;;;;;5072915;28;20502;-86
2021/11/24 10:05:35;;;;;;;7.13;4.65;;;6.70;99.90;;;;;;5056103;28;20098;-86
2021/11/24 10:08:03;;;;;;;4.80;4.13;;;6.80;99.90;;;;;;5073660;28;20488;-87
2021/11/24 10:10:30;;;;;;;6.97;3.65;;;6.90;99.90;;;;;;5056100;28;20466;-87
2021/11/24 10:12:58;;;;;;;3.92;3.00;;;7.00;99.90;;;;;;5073764;28;20489;-86
2021/11/24 10:15:47;;;;;;;4.00;3.60;;;7.10;99.90;;;;;;5056121;28;20041;-87
2021/11/24 10:18:32;;;;;;;5.32;2.72;;;7.30;99.90;;;;;;5056074;28;20064;-86
2021/11/24 10:21:09;;;;;;;6.80;3.30;;;7.30;99.90;;;;;;5072795;28;20055;-87
2021/11/24 10:23:39;;;;;;;3.90;3.47;;;7.10;99.90;;;;;;5056414;28;20048;-88
2021/11/24 10:26:34;;;;;;;4.93;2.70;;;7.20;99.90;;;;;;5072806;28;20098;-88
2021/11/24 10:29:20;;;;;;;;;;;7.20;99.90;;;;;;5059117;28;20075;-88
2021/11/24 10:31:52;;;;;;;4.88;2.38;;;7.50;99.90;;;;;;5073482;28;19921;-88
2021/11/24 10:34:31;;;;;;;3.30;3.00;;;7.40;99.90;;;;;;5056027;28;20127;-87
2021/11/24 10:37:05;;;;;;;4.55;3.22;;;7.50;99.90;;;;;;5071727;28;20080;-88
2021/11/24 10:39:58;;;;;;;4.60;3.50;;;7.60;99.90;;;;;;5056566;28;20052;-88
2021/11/24 10:42:33;;;;;;;3.60;2.65;;;7.80;99.90;;;;;;5055909;28;20381;-88
2021/11/24 10:45:08;;;;;;;3.10;2.60;;;7.80;99.90;;;;;;5055799;28;20057;-88
2021/11/24 10:47:49;;;;;;;3.00;2.70;;;7.80;99.90;;;;;;5055839;28;20507;-88
2021/11/24 10:50:30;;;;;;;4.97;2.28;;;7.80;99.90;;;;;;5073318;28;20044;-88
2021/11/24 10:53:07;;;;;;;3.92;2.40;;;7.70;99.90;;;;;;5072242;28;20049;-88
2021/11/24 10:55:34;;;;;;;3.22;2.38;;;7.80;99.90;;;;;;5055838;28;20047;-87
2021/11/24 10:58:17;;;;;;;5.88;2.80;;;7.70;99.90;;;;;;5055679;28;20191;-88
2021/11/24 11:00:47;;;;;;;5.28;2.20;;;7.80;99.90;;;;;;5055712;28;20040;-87
2021/11/24 11:03:40;;;;;;;4.53;2.10;;;8.00;99.90;;;;;;5073404;28;20055;-87
2021/11/24 11:06:07;;;;;;;4.38;1.88;;;8.20;99.90;;;;;;5055681;28;20044;-88
2021/11/24 11:08:34;;;;;;;3.00;2.00;;;8.20;99.90;;;;;;5073441;28;20157;-86
2021/11/24 11:11:32;;;;;;;1.95;1.30;;;8.30;99.90;;;;;;5057568;28;20055;-87
2021/11/24 11:14:16;;;;;;;4.07;1.48;;;8.20;99.90;;;;;;5073081;28;20117;-87
2021/11/24 11:16:45;;;;;;;2.22;1.48;;;8.20;99.90;;;;;;5072911;28;20144;-87
2021/11/24 11:19:39;;;;;;;2.65;1.25;;;8.40;99.90;;;;;;5055358;28;20049;-88
2021/11/24 11:22:08;;;;;;;2.13;1.60;;;8.50;99.90;;;;;;5057975;28;20109;-87
2021/11/24 11:24:36;;;;;;;3.25;1.73;;;8.40;99.90;;;;;;5059576;28;20056;-88
2021/11/24 11:27:03;;;;;;;2.00;1.40;;;8.10;99.90;;;;;;5059387;28;20583;-88
2021/11/24 11:29:31;;;;;;;3.67;2.45;;;8.10;99.90;;;;;;5076060;28;20048;-88
2021/11/24 11:31:59;;;;;;;8.15;6.32;;;8.00;99.90;;;;;;5076016;28;20045;-88
2021/11/24 11:34:26;;;;;;;2.03;1.73;;;7.80;99.90;;;;;;5059106;28;20072;-87
2021/11/24 11:36:53;;;;;;;0.90;0.90;;;7.60;99.90;;;;;;5075788;28;20078;-85
2021/11/24 11:39:21;;;;;;;0.50;0.50;;;7.20;99.90;;;;;;5059481;28;20048;-87
2021/11/24 11:41:50;;;;;;;1.25;0.95;;;7.10;99.90;;;;;;5059296;28;20048;-87
2021/11/24 11:44:37;;;;;;;5.72;4.20;;;7.20;99.90;;;;;;5075521;28;20049;-87
2021/11/24 11:47:43;;;;;;;2.45;1.20;;;7.20;99.90;;;;;;5062059;28;20475;-87
2021/11/24 11:50:12;;;;;;;12.40;8.15;;;7.20;99.90;;;;;;5059316;28;20052;-87
2021/11/24 11:52:40;;;;;;;5.10;4.60;;;7.30;99.90;;;;;;5093563;28;20044;-87
2021/11/24 11:55:21;;;;;;;3.25;2.95;;;7.50;99.90;;;;;;5076714;28;20066;-87
2021/11/24 11:57:48;;;;;;;6.72;4.68;;;7.50;99.90;;;;;;5058590;28;20408;-87
2021/11/24 12:00:15;;;;;;;1.98;1.80;;;7.70;99.90;;;;;;5058235;28;20151;-87
2021/11/24 12:02:50;;;;;;;2.50;0.55;;;7.90;99.90;;;;;;5076043;28;20139;-87
2021/11/24 12:05:18;;;;;;;10.25;1.95;;;8.10;99.90;;;;;;5058797;28;20052;-88
2021/11/24 12:08:05;;;;;;;6.32;5.38;;;8.10;99.90;;;;;;5058358;28;20051;-87
2021/11/24 12:10:57;;;;;;;3.10;2.58;;;8.00;99.90;;;;;;5075670;28;20468;-87
2021/11/24 12:13:32;;;;;;;46.33;24.65;;;8.10;99.90;;;;;;5057784;28;20058;-87
2021/11/24 12:16:39;;;;;;;2.35;2.00;;;7.90;99.90;;;;;;5056934;28;20106;-88
2021/11/24 12:19:17;;;;;;;4.43;1.15;;;8.00;99.90;;;;;;5058507;28;20055;-87
2021/11/24 12:21:50;;;;;;;6.20;4.00;;;8.00;99.90;;;;;;5074931;28;20048;-88
2021/11/24 12:24:17;;;;;;;1.27;1.20;;;8.00;99.90;;;;;;5058556;28;20558;-88
2021/11/24 12:27:02;;;;;;;3.85;0.80;;;8.00;99.90;;;;;;5075126;28;20135;-88
2021/11/24 12:29:49;;;;;;;1.05;0.90;;;8.00;99.90;;;;;;5074941;28;20584;-88
2021/11/24 12:32:17;;;;;;;1.35;1.20;;;7.90;99.90;;;;;;5074426;28;20139;-87
2021/11/24 12:34:51;;;;;;;1.58;1.13;;;7.90;99.90;;;;;;5074970;28;20114;-88
2021/11/24 12:37:22;;;;;;;;;;;7.80;99.90;;;;;;5071519;28;20488;-87
2021/11/24 12:39:49;;;;;;;1.50;1.00;;;7.60;99.90;;;;;;5048464;28;20043;-85
2021/11/24 12:42:24;;;;;;;1.00;0.80;;;7.50;99.90;;;;;;5069828;28;20051;-87
2021/11/24 12:44:53;;;;;;;2.38;0.70;;;7.20;99.90;;;;;;5075257;28;20047;-87
2021/11/24 12:47:23;;;;;;;3.50;1.20;;;7.30;99.90;;;;;;5075173;28;20143;-87
2021/11/24 12:49:50;;;;;;;0.75;0.75;;;7.40;99.90;;;;;;5045313;28;20045;-87
2021/11/24 12:52:19;;;;;;;0.70;0.70;;;7.50;99.90;;;;;;5037253;28;20048;-88
2021/11/24 12:54:48;;;;;;;5.38;0.80;;;7.60;99.90;;;;;;5037515;28;20044;-88
2021/11/24 12:57:15;;;;;;;1.10;0.70;;;7.60;99.90;;;;;;5046625;28;20051;-87
2021/11/24 12:59:45;;;;;;;0.80;0.80;;;7.70;99.90;;;;;;5060149;28;20049;-87
2021/11/24 13:02:14;;;;;;;1.20;1.10;;;7.60;99.90;;;;;;5054690;28;20588;-87